RJCW/WKJ METAR and TAF weather

Enter ICAO airport designator
Station Type Date Time Source
RJCW METAR 2021/03/07 08:00 UTC NOAA

RJCW 070800Z 24017KT 9999 -SHSN FEW020 SCT030 BKN040 M05/M10 Q1020


Station Type Date Time Source
RJCW Decoded METAR 2021/03/07 08:00 UTC NOAA

Wakkanai Airport, Japan (RJCW) 45-24N 141-48E 11M
Mar 07, 2021 - 03:00 AM EST / 2021.03.07 0800 UTC
Wind: from the WSW (240 degrees) at 20 MPH (17 KT):0
Visibility: greater than 7 mile(s):0
Sky conditions: mostly cloudy
Weather: light snow showers
Temperature: 23 F (-5 C)
Windchill: 8 F (-13 C):1
Dew Point: 14 F (-10 C)
Relative Humidity: 67%
Pressure (altimeter): 30.12 in. Hg (1020 hPa)
ob: RJCW 070800Z 24017KT 9999 -SHSN FEW020 SCT030 BKN040 M05/M10 Q1020
cycle: 8

Station Type Date Time Source
RJCW TAF UTC NOAA

Error!

Example: see airport list